Kalona, IA (52247)

10:06 AM CDT on May 06, 2015 (GMT -0500)
JECC | | Change Station
CLOSE
Current Station
Personal Weather Station
Location: Iowa City, IA
Elevation: 781 ft
Nearby Weather Stations

Elev 781 ft 41.66 °N, 91.60 °W | Updated 5 minutes ago

Mostly Cloudy
Mostly Cloudy
68.2 °F
Feels Like 68.2 °F
N
8.0
Wind Variable Wind from NW
Gusts 10.0 mph

Today
High -- | Low -- °F
--% Chance of Precip.
Yesterday
High -- | Low -- °F
Precip. -- in
5:57 AM 8:09 PM
Waning Gibbous, 94% visible
Pressure 30.10 in
Visibility 4.0 miles
Clouds Mostly Cloudy 11000 ft
Dew Point 64 °F
Humidity 85%
Rainfall 0.00 in
Snow Depth Not available.
UV 2 out of 12
Pollen 10.70 out of 12
Air Quality Not available.
Flu Activity Local Activity
METAR KIOW 061352Z AUTO 10007KT 4SM HZ BKN110 18/15 A3011 RMK AO2 SLP193 T01780150

More Conditions Fewer Conditions

Pressure 30.10 in
Visibility 4.0 miles
Clouds Mostly Cloudy 11000 ft
Dew Point 64 °F
Humidity 85%
Rainfall 0.00 in
Snow Depth Not available.
UV 2 out of 12
Pollen 10.70 out of 12
Air Quality Not available.
Flu Activity Local Activity
METAR KIOW 061352Z AUTO 10007KT 4SM HZ BKN110 18/15 A3011 RMK AO2 SLP193 T01780150

More Conditions Fewer Conditions

10-Day Weather Forecast

Almanac

Astronomy

May. 06, 2015 Rise Set
Actual Time
Civil Twilight
Nautical Twilight
Astronomical Twilight
Moon
Length of Visible Light
Length of Day
Tomorrow will be .
, % of the Moon is Illuminated

Today's Extremes

State Highs State Lows

Community

WunderPhotos

Upload Photos

1,818,926 photos uploaded!

WunderBlogs® & News

Nearby

Air Quality

  Air Quality AQ Index Pollutant
Not available.

Snow Depth

Station Depth Elevation

Earthquake Activity

City Distance Mag. Time & Date
Minimum magnitude displayed is 2.5.

Coastal Water Temperatures

Place Temperature

Stations

Nearby Weather Stations

Station Location Temp. Windchill Dew Point Humidity Wind Precip. Elev Updated Type